Time;durP1;ratioP1;P1;durP2;ratioP2;P2;SDS_P1;SDS_P2;PMS_P1;PMS_P2;Temp;Humidity;BMP_temperature;BMP_pressure;BME280_temperature;BME280_humidity;BME280_pressure;Samples;Min_cycle;Max_cycle;Signal;HPM_P1;HPM_P2
2022/08/16 00:03:00;;;;;;;23.12;10.88;;;;;;;24.88;73.77;99288.95;1770951;81;21774;-80
2022/08/16 00:06:07;;;;;;;30.15;11.40;;;;;;;24.82;73.71;99283.98;1771157;81;21157;-80
2022/08/16 00:09:13;;;;;;;29.55;10.65;;;;;;;24.80;73.63;99286.82;1771099;81;21231;-80
2022/08/16 00:12:18;;;;;;;36.60;10.55;;;;;;;24.73;73.81;99280.98;1771016;81;21705;-80
2022/08/16 00:15:38;;;;;;;28.95;10.03;;;;;;;24.71;73.79;99284.66;1771097;81;21189;-80
2022/08/16 00:18:45;;;;;;;24.82;10.60;;;;;;;24.71;74.03;99283.83;1771953;79;21223;-80
2022/08/16 00:21:50;;;;;;;29.80;10.20;;;;;;;24.66;74.24;99288.07;1771176;81;21714;-80
2022/08/16 00:24:57;;;;;;;34.27;11.25;;;;;;;24.66;74.18;99297.86;1771047;81;21236;-80
2022/08/16 00:28:02;;;;;;;32.78;11.08;;;;;;;24.63;74.42;99300.66;1771004;81;21567;-81
2022/08/16 00:31:08;;;;;;;24.50;9.83;;;;;;;24.62;74.74;99309.34;1771025;81;21212;-80
2022/08/16 00:34:15;;;;;;;31.30;9.73;;;;;;;24.58;75.10;99304.90;1770987;81;21146;-80
2022/08/16 00:37:22;;;;;;;38.63;11.18;;;;;;;24.54;75.11;99305.78;1770134;81;21151;-80
2022/08/16 00:40:40;;;;;;;29.65;10.70;;;;;;;24.51;75.02;99294.60;1770086;81;21770;-80
2022/08/16 00:43:46;;;;;;;30.37;10.63;;;;;;;24.49;75.21;99302.46;1771011;81;21236;-80
2022/08/16 00:47:04;;;;;;;20.30;10.55;;;;;;;24.59;74.99;99298.17;1771218;81;21148;-80
2022/08/16 00:50:09;;;;;;;25.70;10.10;;;;;;;24.59;75.30;99300.97;1770125;81;21201;-80
2022/08/16 00:53:18;;;;;;;30.43;11.18;;;;;;;24.61;75.37;99295.11;1771095;81;21212;-80
2022/08/16 00:56:31;;;;;;;28.42;11.30;;;;;;;24.54;75.77;99280.05;1770948;81;21181;-81
2022/08/16 00:59:41;;;;;;;30.43;10.93;;;;;;;24.58;75.85;99274.72;1770235;81;21173;-80
2022/08/16 01:02:48;;;;;;;28.23;10.82;;;;;;;24.68;75.52;99265.66;1770925;81;21749;-80
2022/08/16 01:05:55;;;;;;;33.30;11.33;;;;;;;24.56;75.77;99256.84;1770978;81;21192;-80
2022/08/16 01:09:04;;;;;;;36.42;11.05;;;;;;;24.43;76.09;99256.95;1770201;81;21205;-80
2022/08/16 01:12:10;;;;;;;31.20;11.55;;;;;;;24.34;76.30;99268.46;1771018;81;21158;-80
2022/08/16 01:15:17;;;;;;;25.60;10.23;;;;;;;24.38;76.20;99283.55;1771187;81;21145;-80
2022/08/16 01:18:25;;;;;;;38.38;11.12;;;;;;;24.37;76.30;99291.67;1770978;81;21209;-81
2022/08/16 01:21:51;;;;;;;28.02;10.38;;;;;;;24.24;76.69;99288.11;1798593;79;21722;-80
2022/08/16 01:25:17;;;;;;;22.20;10.82;;;;;;;24.16;77.10;99316.09;1811528;79;21129;-81
2022/08/16 01:28:26;;;;;;;24.75;10.45;;;;;;;24.14;77.14;99331.48;1811835;79;21240;-80
2022/08/16 01:31:34;;;;;;;22.82;10.40;;;;;;;24.10;77.10;99342.39;1812150;79;21668;-81
2022/08/16 01:34:40;;;;;;;24.80;10.48;;;;;;;24.15;76.84;99325.59;1811881;79;21199;-81
2022/08/16 01:37:52;;;;;;;20.15;9.58;;;;;;;24.36;75.98;99300.30;1811946;79;21215;-80
2022/08/16 01:41:01;;;;;;;22.62;10.90;;;;;;;24.33;75.89;99298.94;1812032;79;21184;-80
2022/08/16 01:44:06;;;;;;;22.17;9.83;;;;;;;24.15;76.51;99299.06;1807886;79;21783;-81
2022/08/16 01:47:13;;;;;;;20.45;9.70;;;;;;;24.15;76.67;99311.62;1812024;79;21149;-80
2022/08/16 01:50:18;;;;;;;20.50;9.95;;;;;;;24.14;77.10;99322.54;1811712;79;21228;-80
2022/08/16 01:53:27;;;;;;;26.85;10.78;;;;;;;24.11;78.04;99320.31;1811056;79;21184;-80
2022/08/16 01:56:43;;;;;;;28.73;10.48;;;;;;;24.09;78.94;99339.88;1811887;79;21745;-80
2022/08/16 01:59:50;;;;;;;27.62;10.78;;;;;;;24.06;79.51;99398.56;1811904;79;21742;-80
2022/08/16 02:02:56;;;;;;;17.45;6.87;;;;;;;23.90;82.83;99484.91;1811903;79;21168;-80
2022/08/16 02:06:02;;;;;;;29.18;5.87;;;;;;;23.56;84.35;99500.05;1811930;79;21181;-80
2022/08/16 02:09:07;;;;;;;14.25;3.25;;;;;;;23.13;86.54;99572.87;1811870;79;21223;-79
2022/08/16 02:12:15;;;;;;;12.82;3.90;;;;;;;21.55;84.93;99520.62;1811918;79;21130;-79
2022/08/16 02:15:22;;;;;;;10.90;4.50;;;;;;;20.40;95.27;99456.13;1810664;79;21192;-78
2022/08/16 03:31:48;;;;;;;9.80;5.53;;;;;;;20.68;100.00;99348.92;1874020;76;22208;-82
2022/08/16 03:34:56;;;;;;;14.58;5.40;;;;;;;20.86;100.00;99376.03;1765342;80;21209;-82
2022/08/16 03:38:05;;;;;;;19.57;6.03;;;;;;;21.10;100.00;99381.48;1765961;80;21244;-76
2022/08/16 03:41:13;;;;;;;10.90;5.50;;;;;;;21.00;100.00;99386.14;1725811;82;22164;-76
2022/08/16 03:44:22;;;;;;;13.72;5.58;;;;;;;21.02;100.00;99394.48;1796017;79;21228;-79
2022/08/16 03:47:31;;;;;;;12.55;5.25;;;;;;;21.19;100.00;99395.16;1794550;79;21816;-81
2022/08/16 03:50:37;;;;;;;10.78;5.53;;;;;;;20.84;100.00;99417.13;1800249;79;21204;-76
2022/08/16 03:53:44;;;;;;;13.22;5.10;;;;;;;20.95;100.00;99439.75;1793783;79;21183;-77
2022/08/16 03:56:51;;;;;;;11.93;5.35;;;;;;;20.96;100.00;99453.93;1805882;79;21150;-77
2022/08/16 03:59:57;;;;;;;11.83;5.17;;;;;;;20.80;100.00;99461.30;1803338;79;21165;-77
2022/08/16 04:03:07;;;;;;;15.43;7.42;;;;;;;20.82;100.00;99469.37;1795791;79;21784;-81
2022/08/16 04:06:16;;;;;;;20.02;9.48;;;;;;;20.59;100.00;99471.36;1799893;79;21240;-77
2022/08/16 04:09:23;;;;;;;24.20;9.28;;;;;;;20.57;100.00;99476.36;1804984;79;22274;-82
2022/08/16 04:12:31;;;;;;;32.80;12.23;;;;;;;20.66;100.00;99478.12;1799173;79;21731;-81
2022/08/16 04:15:39;;;;;;;27.22;11.57;;;;;;;20.68;100.00;99480.07;1802599;79;21161;-81
2022/08/16 04:18:47;;;;;;;35.63;13.10;;;;;;;20.66;100.00;99483.13;1796415;79;21251;-81
2022/08/16 04:21:54;;;;;;;46.23;19.35;;;;;;;20.73;100.00;99481.51;1804176;79;21196;-81
2022/08/16 04:25:04;;;;;;;46.15;17.67;;;;;;;20.88;100.00;99472.47;1791529;79;21729;-77
2022/08/16 04:28:12;;;;;;;40.03;16.27;;;;;;;20.93;100.00;99460.00;1798255;79;21193;-77
2022/08/16 04:31:19;;;;;;;62.45;22.32;;;;;;;21.17;100.00;99452.13;1803088;79;21208;-77
2022/08/16 04:34:26;;;;;;;53.17;21.27;;;;;;;21.33;100.00;99440.06;1804335;79;21820;-77
2022/08/16 04:37:31;;;;;;;70.35;28.52;;;;;;;21.26;100.00;99433.84;1803558;79;21264;-83
2022/08/16 04:40:42;;;;;;;74.85;33.20;;;;;;;21.74;100.00;99423.61;1796022;79;21724;-83
2022/08/16 04:43:48;;;;;;;76.80;36.42;;;;;;;21.80;100.00;99416.95;1795314;79;21800;-79
2022/08/16 04:46:55;;;;;;;85.22;37.20;;;;;;;21.71;100.00;99405.22;1763746;80;21242;-78
2022/08/16 04:50:02;;;;;;;81.87;37.78;;;;;;;21.66;100.00;99382.38;1730483;82;21228;-83
2022/08/16 04:53:22;;;;;;;89.92;38.38;;;;;;;21.67;100.00;99384.88;1766692;80;21252;-79
2022/08/16 04:56:27;;;;;;;71.62;31.50;;;;;;;21.76;100.00;99379.63;1722115;82;21824;-77
2022/08/16 04:59:34;;;;;;;95.40;40.35;;;;;;;21.97;100.00;99395.01;1794808;79;21772;-77
2022/08/16 05:02:41;;;;;;;90.65;38.78;;;;;;;21.97;100.00;99390.27;1795859;79;21244;-77
2022/08/16 05:05:50;;;;;;;83.17;37.10;;;;;;;21.87;100.00;99381.89;1795074;79;21205;-83
2022/08/16 05:08:56;;;;;;;66.00;25.85;;;;;;;22.01;100.00;99394.19;1803785;79;21157;-77
2022/08/16 05:12:02;;;;;;;60.60;26.23;;;;;;;21.87;100.00;99408.34;1802950;79;21216;-77
2022/08/16 05:15:09;;;;;;;63.10;24.75;;;;;;;21.84;100.00;99433.39;1794088;79;21189;-76
2022/08/16 05:18:16;;;;;;;41.18;19.42;;;;;;;21.87;100.00;99457.05;1803177;79;21752;-81
2022/08/16 05:21:23;;;;;;;50.23;19.23;;;;;;;21.66;100.00;99488.95;1798146;79;21215;-76
2022/08/16 05:24:32;;;;;;;41.03;17.83;;;;;;;21.90;100.00;99492.70;1796099;79;21173;-76
2022/08/16 05:27:40;;;;;;;35.85;15.70;;;;;;;21.84;100.00;99497.97;1791969;79;21235;-82
2022/08/16 05:30:47;;;;;;;43.78;18.50;;;;;;;21.76;100.00;99510.44;1793670;79;21169;-77
2022/08/16 05:33:51;;;;;;;55.75;21.07;;;;;;;21.88;100.00;99515.81;1804981;79;21224;-84
2022/08/16 05:36:57;;;;;;;51.92;23.30;;;;;;;21.85;100.00;99506.60;1803681;79;21176;-85
2022/08/16 05:40:04;;;;;;;69.58;29.18;;;;;;;21.78;100.00;99514.34;1803735;79;21196;-78
2022/08/16 05:43:10;;;;;;;78.62;34.92;;;;;;;21.98;100.00;99511.69;1795257;79;21193;-77
2022/08/16 05:46:20;;;;;;;77.37;37.78;;;;;;;22.05;100.00;99491.38;1797369;79;21200;-81
2022/08/16 05:49:30;;;;;;;73.78;35.85;;;;;;;22.11;100.00;99475.03;1746225;79;21796;-77
2022/08/16 05:52:37;;;;;;;69.20;31.73;;;;;;;22.25;100.00;99466.14;1790833;79;21192;-82
2022/08/16 05:55:43;;;;;;;67.53;29.85;;;;;;;22.48;100.00;99465.66;1798002;79;21181;-76
2022/08/16 05:58:49;;;;;;;49.13;24.65;;;;;;;22.58;100.00;99476.82;1793179;79;21713;-77
2022/08/16 06:01:55;;;;;;;26.87;13.75;;;;;;;22.66;100.00;99481.86;1790230;79;21223;-77
2022/08/16 06:05:03;;;;;;;24.45;11.73;;;;;;;22.66;100.00;99484.65;1777750;79;21172;-84
2022/08/16 06:08:09;;;;;;;18.60;8.68;;;;;;;22.64;100.00;99493.86;1763835;79;21746;-77
2022/08/16 06:11:16;;;;;;;17.42;8.65;;;;;;;22.56;100.00;99491.59;1792185;79;21191;-77
2022/08/16 06:14:25;;;;;;;23.22;7.70;;;;;;;22.59;100.00;99496.63;1792047;79;21195;-84
2022/08/16 06:17:32;;;;;;;17.92;7.83;;;;;;;22.49;100.00;99507.76;1798815;79;21176;-84
2022/08/16 06:20:40;;;;;;;18.95;7.53;;;;;;;22.32;100.00;99504.34;1780628;79;21187;-85
2022/08/16 06:23:48;;;;;;;15.10;6.85;;;;;;;22.23;100.00;99508.77;1775798;79;21176;-77
2022/08/16 06:26:55;;;;;;;11.85;6.67;;;;;;;22.25;100.00;99505.14;1785928;79;21157;-84
2022/08/16 06:30:01;;;;;;;13.20;7.47;;;;;;;22.19;100.00;99500.95;1783135;79;21188;-78
2022/08/16 06:33:09;;;;;;;21.17;9.15;;;;;;;22.35;100.00;99497.69;1782066;79;21718;-79
2022/08/16 06:36:18;;;;;;;28.00;14.40;;;;;;;22.33;100.00;99494.31;1787595;79;21688;-82
2022/08/16 06:39:31;;;;;;;31.55;15.45;;;;;;;22.33;100.00;99477.59;1799523;77;21188;-83
2022/08/16 06:42:50;;;;;;;37.75;16.75;;;;;;;22.39;100.00;99465.34;1790231;79;21181;-77
2022/08/16 06:46:01;;;;;;;35.63;17.98;;;;;;;22.49;100.00;99460.91;1774941;79;21137;-83
2022/08/16 06:49:14;;;;;;;42.83;21.35;;;;;;;22.52;100.00;99462.61;1776883;77;21607;-77
2022/08/16 06:52:20;;;;;;;42.27;20.88;;;;;;;22.45;100.00;99467.63;1798005;79;21200;-84
2022/08/16 06:55:27;;;;;;;41.90;20.37;;;;;;;22.45;100.00;99471.23;1788113;79;21177;-77
2022/08/16 06:58:35;;;;;;;36.08;18.02;;;;;;;22.52;100.00;99471.52;1791034;77;21141;-84
2022/08/16 07:01:43;;;;;;;34.50;17.15;;;;;;;22.59;100.00;99474.90;1786437;79;21168;-76
2022/08/16 07:04:51;;;;;;;33.42;16.60;;;;;;;22.62;100.00;99476.55;1787445;79;21567;-76
2022/08/16 07:07:58;;;;;;;30.52;15.75;;;;;;;22.65;100.00;99474.62;1779817;78;21176;-76
2022/08/16 07:11:03;;;;;;;37.08;15.60;;;;;;;22.70;100.00;99476.02;1786824;77;21220;-83
2022/08/16 07:14:09;;;;;;;28.35;14.20;;;;;;;22.79;100.00;99464.33;1770905;79;21235;-77
2022/08/16 07:17:21;;;;;;;22.73;13.75;;;;;;;22.82;100.00;99473.52;1791938;79;21203;-83
2022/08/16 07:20:27;;;;;;;25.65;14.05;;;;;;;22.79;100.00;99475.48;1796123;79;21168;-83
2022/08/16 07:23:35;;;;;;;25.10;14.25;;;;;;;22.93;100.00;99487.23;1790276;79;21192;-83
2022/08/16 07:26:40;;;;;;;24.90;12.65;;;;;;;22.86;100.00;99494.98;1785378;77;21196;-83
2022/08/16 07:29:47;;;;;;;22.65;11.43;;;;;;;22.90;100.00;99499.49;1785335;78;21204;-82
2022/08/16 07:32:54;;;;;;;22.55;10.93;;;;;;;23.00;100.00;99498.66;1781142;79;21146;-83
2022/08/16 07:36:00;;;;;;;22.35;10.38;;;;;;;23.05;100.00;99495.31;1779794;78;21145;-77
2022/08/16 07:39:08;;;;;;;21.68;10.08;;;;;;;23.12;100.00;99501.47;1769473;81;21872;-83
2022/08/16 07:42:14;;;;;;;19.15;10.55;;;;;;;23.30;100.00;99510.41;1792962;79;21192;-77
2022/08/16 07:45:21;;;;;;;18.02;9.43;;;;;;;23.25;100.00;99515.42;1802218;79;21161;-79
2022/08/16 07:48:28;;;;;;;20.77;9.75;;;;;;;23.27;100.00;99510.95;1801162;79;21184;-77
2022/08/16 07:51:35;;;;;;;21.35;10.23;;;;;;;23.17;100.00;99516.81;1769719;77;21190;-83
2022/08/16 07:54:40;;;;;;;17.20;10.63;;;;;;;23.14;100.00;99520.70;1764183;79;21220;-83
2022/08/16 07:57:48;;;;;;;19.67;10.05;;;;;;;23.14;100.00;99516.52;1759522;79;21206;-83
2022/08/16 08:00:51;;;;;;;28.30;10.82;;;;;;;23.07;100.00;99519.59;1801952;79;21168;-83
2022/08/16 08:03:51;;;;;;;19.65;9.80;;;;;;;22.93;100.00;99522.65;1795426;79;22073;-77
2022/08/16 08:06:59;;;;;;;27.05;11.75;;;;;;;22.89;100.00;99520.13;1796092;79;22283;-77
2022/08/16 08:10:06;;;;;;;28.20;12.07;;;;;;;22.89;100.00;99527.94;1799122;79;21463;-83
2022/08/16 08:13:15;;;;;;;40.98;13.80;;;;;;;23.04;100.00;99521.53;1764944;79;21169;-78
2022/08/16 08:16:23;;;;;;;36.33;13.55;;;;;;;23.16;100.00;99524.07;1800959;77;21223;-82
2022/08/16 08:19:29;;;;;;;34.35;13.65;;;;;;;23.05;100.00;99518.19;1792607;79;21203;-77
2022/08/16 08:22:38;;;;;;;24.63;10.35;;;;;;;23.10;100.00;99520.45;1771832;79;21165;-77
2022/08/16 08:25:45;;;;;;;21.73;10.13;;;;;;;23.04;100.00;99531.30;1780673;79;21141;-83
2022/08/16 08:28:53;;;;;;;16.70;8.25;;;;;;;22.97;100.00;99538.28;1794617;77;21249;-77
2022/08/16 08:31:59;;;;;;;16.17;7.25;;;;;;;23.04;100.00;99532.69;1790760;79;21196;-77
2022/08/16 08:35:06;;;;;;;21.62;7.25;;;;;;;23.24;100.00;99542.19;1799402;79;21200;-83
2022/08/16 08:38:13;;;;;;;30.97;9.35;;;;;;;23.37;100.00;99543.03;1783105;79;21799;-77
2022/08/16 08:41:20;;;;;;;25.57;7.20;;;;;;;23.51;100.00;99539.95;1778408;79;21207;-81
2022/08/16 08:44:35;;;;;;;19.40;7.87;;;;;;;23.67;100.00;99536.08;1840186;76;22817;-78
2022/08/16 08:47:41;;;;;;;20.77;7.85;;;;;;;23.66;100.00;99544.16;1727863;82;21187;-78
2022/08/16 08:50:50;;;;;;;24.90;8.33;;;;;;;23.82;100.00;99542.20;1745373;81;21185;-78
2022/08/16 08:53:59;;;;;;;22.20;7.87;;;;;;;23.99;100.00;99536.27;1743417;81;21197;-78
2022/08/16 08:57:07;;;;;;;25.02;7.47;;;;;;;24.21;100.00;99529.78;1745194;81;21185;-77
2022/08/16 09:00:17;;;;;;;16.45;6.67;;;;;;;24.46;97.95;99522.44;1760718;80;21183;-77
2022/08/16 09:03:25;;;;;;;19.73;7.62;;;;;;;24.66;95.79;99511.17;1765542;81;21189;-77
2022/08/16 09:06:32;;;;;;;20.77;7.65;;;;;;;24.95;93.39;99496.44;1759160;81;21204;-77
2022/08/16 09:09:41;;;;;;;23.90;7.70;;;;;;;25.33;93.45;99495.33;1757815;81;21185;-77
2022/08/16 09:12:47;;;;;;;25.43;7.80;;;;;;;25.60;90.96;99494.80;1741388;82;21205;-78
2022/08/16 09:15:56;;;;;;;20.95;7.42;;;;;;;25.85;89.78;99503.52;1764065;81;21247;-77
2022/08/16 09:19:03;;;;;;;22.90;7.03;;;;;;;25.99;86.15;99507.28;1749470;82;21178;-77
2022/08/16 09:22:11;;;;;;;33.02;8.40;;;;;;;25.97;86.96;99509.00;1708152;82;21268;-77
2022/08/16 09:25:18;;;;;;;20.95;7.55;;;;;;;26.01;87.68;99506.41;1718425;83;21213;-77
2022/08/16 09:28:28;;;;;;;22.40;7.50;;;;;;;26.00;87.58;99512.58;1735090;82;21283;-77
2022/08/16 09:31:36;;;;;;;25.85;7.55;;;;;;;26.01;86.30;99509.21;1744677;82;21214;-77
2022/08/16 09:34:42;;;;;;;19.45;6.90;;;;;;;26.08;87.49;99505.50;1745366;82;21762;-77
2022/08/16 09:37:49;;;;;;;25.68;7.72;;;;;;;26.11;85.22;99513.86;1747756;82;21242;-77
2022/08/16 09:40:58;;;;;;;26.48;7.75;;;;;;;26.13;85.78;99511.04;1737886;82;21267;-77
2022/08/16 09:44:05;;;;;;;24.00;7.67;;;;;;;26.19;84.23;99516.02;1726854;82;21765;-77
2022/08/16 09:47:13;;;;;;;21.20;7.22;;;;;;;26.31;82.16;99509.42;1711990;83;21537;-77
2022/08/16 09:50:21;;;;;;;20.62;7.45;;;;;;;26.20;83.81;99516.27;1721678;81;21203;-78
2022/08/16 09:53:29;;;;;;;20.02;7.87;;;;;;;26.18;81.50;99520.78;1743252;82;21192;-78
2022/08/16 09:56:41;;;;;;;25.05;7.97;;;;;;;26.21;83.43;99521.60;1746461;82;21298;-78
2022/08/16 09:59:48;;;;;;;23.47;8.33;;;;;;;26.35;84.05;99525.92;1743976;82;21644;-78
2022/08/16 10:02:57;;;;;;;33.85;7.45;;;;;;;26.56;83.88;99531.28;1745828;82;21192;-78
2022/08/16 10:06:05;;;;;;;19.30;6.87;;;;;;;26.61;81.34;99534.84;1730325;82;21176;-78
2022/08/16 10:09:12;;;;;;;25.88;7.87;;;;;;;26.70;81.64;99533.04;1733914;82;21184;-78
2022/08/16 10:15:43;;;;;;;23.87;7.45;;;;;;;26.92;81.65;99545.66;1739101;82;21235;-78
2022/08/16 10:18:51;;;;;;;23.73;7.22;;;;;;;26.90;82.93;99544.53;1733221;80;21203;-78
2022/08/16 10:21:57;;;;;;;18.07;7.70;;;;;;;26.97;81.97;99549.78;1725720;82;21266;-79
2022/08/16 10:25:04;;;;;;;28.95;8.85;;;;;;;27.05;82.27;99551.05;1738627;82;21275;-79
2022/08/16 10:28:12;;;;;;;25.65;8.00;;;;;;;26.95;81.74;99552.88;1734982;82;21219;-78
2022/08/16 10:31:19;;;;;;;31.80;8.58;;;;;;;27.06;81.09;99549.37;1733282;80;21259;-78
2022/08/16 10:34:25;;;;;;;32.35;8.43;;;;;;;27.05;81.65;99544.04;1738953;82;21219;-78
2022/08/16 10:37:31;;;;;;;28.23;8.45;;;;;;;27.05;81.74;99539.83;1729719;82;21180;-78
2022/08/16 10:40:36;;;;;;;21.93;7.97;;;;;;;27.11;80.59;99538.09;1725477;82;21211;-78
2022/08/16 10:43:44;;;;;;;35.83;9.60;;;;;;;26.98;82.13;99542.45;1739273;82;21247;-78
2022/08/16 10:46:49;;;;;;;22.10;7.42;;;;;;;27.01;79.71;99543.84;1725268;82;21121;-79
2022/08/16 10:49:55;;;;;;;24.82;7.78;;;;;;;27.03;81.57;99545.75;1730801;82;21220;-79
2022/08/16 10:53:05;;;;;;;27.98;8.33;;;;;;;27.06;80.89;99546.56;1713567;82;21204;-79
2022/08/16 10:56:11;;;;;;;22.50;7.60;;;;;;;27.17;82.35;99536.86;1723524;82;21176;-79
2022/08/16 10:59:18;;;;;;;25.88;9.08;;;;;;;27.35;80.58;99543.60;1702548;84;21798;-79
2022/08/16 11:02:25;;;;;;;27.40;7.42;;;;;;;27.41;79.10;99549.96;1703573;84;21240;-78
2022/08/16 11:05:32;;;;;;;37.10;8.10;;;;;;;27.42;79.57;99544.03;1701642;84;21612;-78
2022/08/16 11:08:42;;;;;;;26.57;8.65;;;;;;;27.49;79.99;99538.87;1702488;84;21207;-77
2022/08/16 11:11:50;;;;;;;28.77;8.50;;;;;;;27.51;78.60;99544.17;1705010;82;21189;-77
2022/08/16 11:14:58;;;;;;;23.52;8.33;;;;;;;27.63;80.39;99543.13;1731016;82;21232;-78
2022/08/16 11:18:06;;;;;;;25.52;8.73;;;;;;;27.67;78.92;99544.75;1718983;82;21758;-77
2022/08/16 11:21:13;;;;;;;22.30;8.33;;;;;;;27.64;79.16;99546.19;1726355;82;21882;-78
2022/08/16 11:24:21;;;;;;;27.77;8.40;;;;;;;27.72;80.88;99549.73;1732387;82;21200;-77
2022/08/16 11:27:28;;;;;;;29.30;8.15;;;;;;;27.83;79.91;99552.36;1729339;82;21213;-78
2022/08/16 11:33:20;;;;;;;29.32;8.28;;;;;;;28.13;77.57;99552.34;1845715;76;28065;-78
2022/08/16 11:36:28;;;;;;;27.77;7.72;;;;;;;28.04;78.49;99539.57;1839006;78;21212;-78
2022/08/16 11:39:32;;;;;;;23.42;7.97;;;;;;;27.98;79.65;99533.22;1759365;80;21282;-78
2022/08/16 11:42:38;;;;;;;23.10;8.03;;;;;;;27.95;76.46;99531.62;1829506;77;21773;-78
2022/08/16 11:45:37;;;;;;;18.92;8.53;;;;;;;27.81;78.29;99523.72;1832570;77;21157;-78
2022/08/16 11:48:45;;;;;;;26.20;8.48;;;;;;;27.76;78.98;99521.86;1828336;78;21615;-78
2022/08/16 11:51:51;;;;;;;17.67;7.90;;;;;;;27.74;77.67;99520.75;1829943;77;21283;-78
2022/08/16 11:54:57;;;;;;;20.82;7.55;;;;;;;27.69;75.70;99516.59;1833929;77;22536;-78
2022/08/16 11:58:04;;;;;;;29.42;8.70;;;;;;;27.61;78.94;99520.69;1814215;78;21782;-78
2022/08/16 12:01:12;;;;;;;23.27;7.90;;;;;;;27.53;78.28;99511.02;1801374;78;21208;-78
2022/08/16 12:04:20;;;;;;;22.27;8.40;;;;;;;27.57;79.32;99511.20;1809139;78;21326;-78
2022/08/16 12:07:26;;;;;;;29.02;8.43;;;;;;;27.59;76.98;99511.17;1802794;78;21260;-78
2022/08/16 12:10:33;;;;;;;23.35;7.78;;;;;;;27.59;76.66;99515.39;1797214;79;21198;-78
2022/08/16 12:13:41;;;;;;;26.82;8.45;;;;;;;27.60;79.00;99512.83;1817744;78;21164;-78
2022/08/16 12:16:49;;;;;;;24.37;8.33;;;;;;;27.60;77.67;99512.00;1824218;78;21181;-78
2022/08/16 12:19:55;;;;;;;25.72;8.23;;;;;;;27.61;80.33;99508.05;1821875;78;21771;-77
2022/08/16 12:23:11;;;;;;;20.90;7.47;;;;;;;27.67;80.81;99502.62;1784820;79;21199;-77
2022/08/16 12:26:18;;;;;;;25.35;7.33;;;;;;;27.80;79.60;99506.61;1778549;79;21160;-78
2022/08/16 12:29:23;;;;;;;26.33;7.22;;;;;;;27.81;78.77;99504.05;1787622;79;21327;-77
2022/08/16 12:32:31;;;;;;;23.20;8.48;;;;;;;27.85;79.81;99496.67;1788015;79;21374;-77
2022/08/16 12:35:41;;;;;;;20.82;7.78;;;;;;;27.99;78.53;99491.31;1795255;80;21803;-79
2022/08/16 12:38:49;;;;;;;18.52;7.40;;;;;;;28.05;77.50;99490.67;1786722;79;21295;-79
2022/08/16 12:41:56;;;;;;;20.92;7.47;;;;;;;28.05;78.29;99482.23;1786035;80;21197;-79
2022/08/16 12:45:02;;;;;;;18.80;6.78;;;;;;;28.13;78.56;99469.41;1787276;79;21256;-79
2022/08/16 12:51:40;;;;;;;20.80;7.50;;;;;;;28.43;77.82;99472.19;1786934;79;21232;-77
2022/08/16 12:54:48;;;;;;;27.93;8.43;;;;;;;28.56;77.75;99468.52;1790552;79;21207;-77
2022/08/16 12:57:55;;;;;;;21.48;8.48;;;;;;;28.91;76.66;99470.23;1786735;79;21194;-77
2022/08/16 13:01:02;;;;;;;27.32;8.43;;;;;;;28.91;76.66;99470.23;1793068;80;21181;-77
2022/08/16 13:04:09;;;;;;;24.47;7.80;;;;;;;29.08;76.17;99479.41;1784868;80;21776;-77
2022/08/16 13:07:16;;;;;;;18.67;6.78;;;;;;;29.24;75.26;99475.91;1788303;79;21840;-77
2022/08/16 13:10:28;;;;;;;30.82;7.33;;;;;;;29.24;69.53;99483.52;1790098;79;21871;-77
2022/08/16 13:13:35;;;;;;;20.25;7.45;;;;;;;29.22;69.06;99478.80;1795081;79;21275;-77
2022/08/16 13:16:41;;;;;;;21.52;6.47;;;;;;;29.09;69.10;99479.69;1800153;79;21822;-77
2022/08/16 13:19:46;;;;;;;23.30;5.67;;;;;;;28.90;67.57;99488.28;1798526;79;21209;-78
2022/08/16 13:23:10;;;;;;;16.37;6.12;;;;;;;28.68;67.08;99496.09;1800987;79;21196;-78
2022/08/16 13:26:15;;;;;;;25.57;6.35;;;;;;;28.68;67.08;99496.09;1798190;79;21204;-77
2022/08/16 13:29:21;;;;;;;14.03;5.47;;;;;;;28.57;67.99;99494.09;1796842;79;21252;-77
2022/08/16 13:32:27;;;;;;;23.00;6.70;;;;;;;28.44;66.08;99487.91;1792727;80;21236;-78
2022/08/16 13:35:35;;;;;;;18.35;5.37;;;;;;;28.27;66.92;99493.55;1789459;79;22276;-77
2022/08/16 13:38:43;;;;;;;24.60;7.50;;;;;;;28.09;69.10;99497.87;1758407;80;21217;-77
2022/08/16 13:41:49;;;;;;;22.25;6.65;;;;;;;27.97;67.83;99497.00;1733379;82;21239;-78
2022/08/16 13:44:56;;;;;;;22.20;6.85;;;;;;;27.95;69.27;99496.50;1735026;82;21204;-77
2022/08/16 13:48:05;;;;;;;18.05;7.00;;;;;;;27.99;68.48;99498.92;1728157;83;21229;-77
2022/08/16 13:51:12;;;;;;;31.27;6.55;;;;;;;27.97;67.34;99504.86;1726553;82;21228;-77
2022/08/16 13:54:20;;;;;;;22.40;6.95;;;;;;;27.93;67.33;99515.63;1759386;80;21210;-77
2022/08/16 13:57:27;;;;;;;21.25;6.40;;;;;;;27.89;68.13;99516.81;1764379;80;21787;-77
2022/08/16 14:00:35;;;;;;;26.27;6.65;;;;;;;27.91;67.03;99523.55;1767496;80;21224;-77
2022/08/16 14:03:41;;;;;;;26.55;6.72;;;;;;;27.78;66.76;99531.38;1761014;80;21205;-77
2022/08/16 14:06:48;;;;;;;21.65;6.92;;;;;;;27.72;65.62;99530.08;1761021;80;21276;-78
2022/08/16 14:09:54;;;;;;;33.80;7.97;;;;;;;27.65;65.52;99529.59;1760506;80;21231;-77
2022/08/16 14:13:01;;;;;;;27.95;8.30;;;;;;;27.67;66.09;99530.13;1765701;80;21207;-77
2022/08/16 14:16:08;;;;;;;28.00;7.10;;;;;;;27.72;66.50;99527.27;1755801;80;21871;-77
2022/08/16 14:19:17;;;;;;;27.40;8.83;;;;;;;27.74;65.42;99528.34;1763477;81;21257;-77
2022/08/16 14:22:37;;;;;;;21.37;7.70;;;;;;;27.74;66.22;99519.34;1770561;81;21203;-77
2022/08/16 14:25:44;;;;;;;35.88;9.35;;;;;;;27.82;66.53;99511.36;1763426;81;21166;-77
2022/08/16 14:28:51;;;;;;;36.13;8.30;;;;;;;27.78;66.65;99506.09;1761567;81;21759;-77
2022/08/16 14:32:00;;;;;;;25.90;8.03;;;;;;;27.83;65.82;99515.83;1768831;80;21215;-78
2022/08/16 14:35:08;;;;;;;29.02;7.45;;;;;;;27.88;65.50;99517.14;1743375;81;21214;-78
2022/08/16 14:38:16;;;;;;;19.90;7.92;;;;;;;27.84;66.01;99518.32;1795807;79;21209;-78
2022/08/16 14:41:24;;;;;;;31.82;9.40;;;;;;;27.76;64.96;99511.45;1762387;80;21235;-78
2022/08/16 14:44:30;;;;;;;35.92;9.30;;;;;;;27.69;66.85;99521.39;1794588;79;21200;-77
2022/08/16 14:47:37;;;;;;;30.70;7.85;;;;;;;27.65;66.91;99523.97;1801153;79;21219;-78
2022/08/16 14:50:44;;;;;;;35.60;7.90;;;;;;;27.64;66.16;99515.86;1800953;79;21225;-78
2022/08/16 14:53:49;;;;;;;21.45;7.28;;;;;;;27.53;65.78;99525.62;1793276;79;21259;-78
2022/08/16 14:56:55;;;;;;;27.48;7.28;;;;;;;27.45;66.72;99522.94;1789285;79;21810;-78
2022/08/16 15:00:01;;;;;;;35.50;8.03;;;;;;;27.40;67.43;99530.05;1760462;80;21220;-77
2022/08/16 15:03:10;;;;;;;29.87;7.20;;;;;;;27.43;67.47;99530.81;1729077;82;21231;-77
2022/08/16 15:06:17;;;;;;;26.12;7.45;;;;;;;27.41;68.40;99523.28;1760494;80;21192;-77
2022/08/16 15:09:23;;;;;;;24.27;6.97;;;;;;;27.24;69.55;99531.72;1760776;80;21212;-77
2022/08/16 15:12:30;;;;;;;30.57;7.70;;;;;;;27.14;70.23;99520.63;1762771;80;21284;-78
2022/08/16 15:15:37;;;;;;;33.83;7.97;;;;;;;27.18;70.67;99509.62;1761034;80;21216;-77
2022/08/16 15:18:42;;;;;;;35.38;7.42;;;;;;;27.20;71.43;99512.98;1762594;80;21374;-77
2022/08/16 15:21:49;;;;;;;35.10;8.15;;;;;;;27.33;71.38;99506.55;1759233;80;21236;-77
2022/08/16 15:24:57;;;;;;;27.10;7.70;;;;;;;27.23;71.33;99505.33;1756453;80;21834;-77
2022/08/16 15:28:04;;;;;;;28.25;7.60;;;;;;;27.22;71.82;99499.45;1732031;82;21272;-77
2022/08/16 15:31:13;;;;;;;40.33;7.78;;;;;;;27.28;72.34;99498.80;1733799;82;21244;-77
2022/08/16 15:34:18;;;;;;;30.05;7.35;;;;;;;27.32;72.30;99493.66;1796681;79;21224;-77
2022/08/16 15:37:25;;;;;;;25.95;6.92;;;;;;;27.38;71.12;99496.64;1790755;79;21758;-77
2022/08/16 15:40:32;;;;;;;19.77;6.72;;;;;;;27.20;71.87;99499.77;1807555;79;21286;-77
2022/08/16 15:43:39;;;;;;;26.12;8.13;;;;;;;27.19;72.86;99496.68;1758678;80;21256;-77
2022/08/16 15:46:46;;;;;;;24.57;6.92;;;;;;;27.22;73.32;99507.30;1728306;83;21194;-77
2022/08/16 15:49:53;;;;;;;28.32;7.95;;;;;;;27.18;73.07;99506.81;1741591;82;21189;-77